Time;durP1;ratioP1;P1;durP2;ratioP2;P2;SDS_P1;SDS_P2;PMS_P1;PMS_P2;Temp;Humidity;BMP_temperature;BMP_pressure;BME280_temperature;BME280_humidity;BME280_pressure;Samples;Min_cycle;Max_cycle;Signal;HPM_P1;HPM_P2
2022/11/02 00:01:39;;;;;;;3.63;2.50;;;12.10;85.20;;;;;;4997284;28;20034;-62
2022/11/02 00:04:05;;;;;;;3.97;2.40;;;12.10;84.50;;;;;;5001121;28;20046;-60
2022/11/02 00:06:30;;;;;;;4.00;2.50;;;12.00;84.50;;;;;;5002048;28;20044;-61
2022/11/02 00:08:56;;;;;;;2.60;2.40;;;12.00;84.60;;;;;;5002399;28;20029;-61
2022/11/02 00:11:21;;;;;;;2.90;2.50;;;12.00;84.50;;;;;;4995106;28;20053;-59
2022/11/02 00:13:47;;;;;;;3.85;2.30;;;12.00;84.40;;;;;;5001965;28;20097;-61
2022/11/02 00:16:14;;;;;;;3.65;2.40;;;11.90;84.30;;;;;;4997707;28;20038;-61
2022/11/02 00:18:43;;;;;;;4.75;2.33;;;11.90;84.10;;;;;;5003229;28;20030;-61
2022/11/02 00:21:10;;;;;;;3.22;2.63;;;11.90;84.00;;;;;;5004711;28;20038;-60
2022/11/02 00:23:36;;;;;;;2.60;2.40;;;11.90;83.90;;;;;;4998941;28;20033;-61
2022/11/02 00:26:02;;;;;;;3.60;2.22;;;11.90;83.70;;;;;;5002758;28;20405;-60
2022/11/02 00:28:28;;;;;;;3.80;2.20;;;11.90;83.70;;;;;;5009049;28;20121;-62
2022/11/02 00:30:53;;;;;;;3.40;2.80;;;11.80;83.50;;;;;;5010122;28;20033;-62
2022/11/02 00:33:19;;;;;;;3.22;2.28;;;11.80;83.40;;;;;;5010033;28;20030;-61
2022/11/02 00:35:45;;;;;;;3.88;2.80;;;11.80;83.30;;;;;;5009523;28;20052;-61
2022/11/02 00:38:11;;;;;;;5.50;2.63;;;11.80;83.40;;;;;;5000566;28;20533;-61
2022/11/02 00:40:36;;;;;;;3.95;2.38;;;11.70;83.30;;;;;;4997783;28;20121;-61
2022/11/02 00:43:02;;;;;;;2.60;2.40;;;11.70;83.20;;;;;;4999891;28;20053;-61
2022/11/02 00:45:27;;;;;;;4.93;2.63;;;11.70;83.20;;;;;;5005030;28;20026;-59
2022/11/02 00:47:53;;;;;;;3.60;2.70;;;11.60;83.00;;;;;;5000744;28;20449;-61
2022/11/02 00:50:19;;;;;;;3.53;2.67;;;11.60;83.10;;;;;;5001732;28;20034;-60
2022/11/02 00:52:44;;;;;;;3.88;2.60;;;11.50;83.40;;;;;;5005462;28;20045;-60
2022/11/02 00:55:10;;;;;;;3.78;2.83;;;11.50;83.60;;;;;;5005200;28;20363;-61
2022/11/02 00:57:38;;;;;;;3.50;2.72;;;11.40;83.50;;;;;;5005136;28;20044;-60
2022/11/02 01:00:05;;;;;;;7.43;3.97;;;11.40;83.60;;;;;;5000297;28;20528;-62
2022/11/02 01:02:34;;;;;;;6.55;4.28;;;11.40;83.60;;;;;;4999431;28;20576;-61
2022/11/02 01:04:59;;;;;;;6.43;4.82;;;11.40;84.30;;;;;;5003571;28;20072;-61
2022/11/02 01:07:26;;;;;;;5.82;4.15;;;11.30;83.30;;;;;;5000535;28;20357;-62
2022/11/02 01:09:52;;;;;;;6.70;4.18;;;11.30;83.10;;;;;;5003302;28;20084;-60
2022/11/02 01:12:17;;;;;;;5.15;3.97;;;11.20;83.20;;;;;;4996891;28;20042;-60
2022/11/02 01:14:45;;;;;;;6.43;3.78;;;11.20;83.40;;;;;;5005572;28;20485;-61
2022/11/02 01:17:11;;;;;;;6.35;3.70;;;11.20;83.60;;;;;;5005529;28;20385;-59
2022/11/02 01:19:36;;;;;;;4.30;2.67;;;11.10;83.30;;;;;;5004091;28;20034;-61
2022/11/02 01:22:02;;;;;;;2.47;2.25;;;11.10;83.40;;;;;;5004916;28;20038;-60
2022/11/02 01:24:28;;;;;;;4.57;2.40;;;11.10;84.20;;;;;;5000972;28;20038;-61
2022/11/02 01:26:54;;;;;;;3.30;2.00;;;11.00;84.50;;;;;;5003000;28;20045;-60
2022/11/02 01:29:20;;;;;;;4.65;2.25;;;10.90;84.80;;;;;;5008406;28;20371;-60
2022/11/02 01:31:47;;;;;;;3.50;2.38;;;10.90;85.50;;;;;;5007786;28;20049;-62
2022/11/02 01:34:13;;;;;;;4.47;2.30;;;10.90;86.00;;;;;;5007792;28;20033;-60
2022/11/02 01:36:39;;;;;;;3.85;2.78;;;10.90;86.60;;;;;;5006078;28;20034;-61
2022/11/02 01:39:05;;;;;;;4.00;2.20;;;10.90;87.10;;;;;;4999869;28;20034;-61
2022/11/02 01:41:30;;;;;;;3.88;2.50;;;10.90;87.40;;;;;;5000020;28;20042;-61
2022/11/02 01:43:57;;;;;;;3.67;2.45;;;10.90;88.00;;;;;;4998344;28;20165;-59
2022/11/02 01:46:44;;;;;;;3.15;2.58;;;10.90;88.20;;;;;;4999786;28;20038;-62
2022/11/02 01:49:18;;;;;;;3.40;2.42;;;11.00;89.00;;;;;;4999234;28;20045;-60
2022/11/02 01:52:11;;;;;;;3.42;2.67;;;11.00;88.50;;;;;;5005145;28;20038;-61
2022/11/02 01:54:45;;;;;;;4.13;2.75;;;11.00;89.20;;;;;;5001080;28;20044;-62
2022/11/02 01:57:15;;;;;;;4.27;2.00;;;11.10;88.40;;;;;;5005226;28;20045;-61
2022/11/02 01:59:50;;;;;;;2.35;2.00;;;11.10;88.40;;;;;;5002414;28;20489;-59
2022/11/02 02:02:21;;;;;;;4.28;2.80;;;11.10;88.50;;;;;;4998585;28;20313;-60
2022/11/02 02:04:52;;;;;;;4.18;2.65;;;11.10;88.00;;;;;;5005311;28;20572;-60
2022/11/02 02:07:18;;;;;;;4.18;3.00;;;11.20;87.60;;;;;;5003949;28;20045;-62
2022/11/02 02:09:44;;;;;;;5.88;2.78;;;11.20;87.30;;;;;;5000901;28;20290;-60
2022/11/02 02:12:11;;;;;;;4.05;2.78;;;11.20;87.10;;;;;;4996342;28;20030;-59
2022/11/02 02:14:37;;;;;;;5.70;2.67;;;11.20;87.10;;;;;;5003018;28;20054;-60
2022/11/02 02:17:17;;;;;;;3.33;2.50;;;11.20;86.80;;;;;;5002025;28;20030;-60
2022/11/02 02:19:59;;;;;;;4.63;2.92;;;11.20;86.60;;;;;;5000149;28;21674;-61
2022/11/02 02:22:43;;;;;;;3.65;2.63;;;11.20;86.30;;;;;;5001679;28;20044;-61
2022/11/02 02:25:45;;;;;;;2.97;2.10;;;11.20;86.00;;;;;;4994320;28;20038;-60
2022/11/02 02:28:11;;;;;;;4.05;2.53;;;11.20;86.00;;;;;;4997664;28;20046;-62
2022/11/02 02:30:42;;;;;;;2.97;2.60;;;11.20;85.90;;;;;;4998100;28;20044;-60
2022/11/02 02:33:16;;;;;;;4.00;2.60;;;11.20;86.00;;;;;;4997862;28;20160;-61
2022/11/02 02:35:52;;;;;;;3.90;2.22;;;11.20;85.90;;;;;;4999302;28;20034;-60
2022/11/02 02:38:23;;;;;;;5.00;2.50;;;11.20;85.80;;;;;;5007233;28;20108;-59
2022/11/02 02:41:08;;;;;;;2.88;2.47;;;11.20;85.70;;;;;;5007389;28;20041;-61
2022/11/02 02:43:47;;;;;;;;;;;11.20;85.60;;;;;;5007677;28;20030;-61
2022/11/02 02:46:33;;;;;;;2.35;1.75;;;11.20;85.80;;;;;;5007537;28;20605;-60
2022/11/02 02:48:59;;;;;;;2.63;2.00;;;11.20;85.50;;;;;;5007101;28;20034;-62
2022/11/02 02:51:28;;;;;;;2.25;2.00;;;11.20;85.60;;;;;;5003481;28;20048;-62
2022/11/02 02:54:24;;;;;;;2.97;2.00;;;11.20;85.70;;;;;;5001859;28;20032;-61
2022/11/02 02:56:56;;;;;;;2.70;2.00;;;11.20;85.90;;;;;;4980108;28;20035;-62
2022/11/02 02:59:26;;;;;;;2.42;1.77;;;11.20;85.90;;;;;;4998933;28;20046;-59
2022/11/02 03:01:53;;;;;;;4.10;1.88;;;11.10;85.80;;;;;;5000726;28;20053;-60
2022/11/02 03:04:19;;;;;;;3.92;2.00;;;11.20;86.20;;;;;;5001621;28;20049;-60
2022/11/02 03:06:50;;;;;;;3.72;1.90;;;11.20;86.50;;;;;;4996635;28;20537;-60
2022/11/02 03:09:49;;;;;;;6.57;2.22;;;11.20;86.70;;;;;;5002976;28;20552;-61
2022/11/02 03:12:32;;;;;;;3.42;2.08;;;11.20;87.10;;;;;;4993677;28;20041;-59
2022/11/02 03:15:36;;;;;;;3.50;2.20;;;11.20;87.00;;;;;;5001219;28;20478;-59
2022/11/02 03:18:10;;;;;;;2.58;1.90;;;11.20;87.00;;;;;;4964235;28;20748;-60
2022/11/02 03:20:55;;;;;;;3.17;1.67;;;11.20;86.70;;;;;;4998071;28;20073;-59
2022/11/02 03:23:32;;;;;;;2.97;2.22;;;11.20;87.00;;;;;;4997959;28;20072;-60
2022/11/02 03:26:21;;;;;;;5.65;2.05;;;11.30;86.80;;;;;;4999486;28;20117;-59
2022/11/02 03:28:46;;;;;;;3.95;1.88;;;11.30;86.90;;;;;;4998087;28;20097;-60
2022/11/02 03:31:36;;;;;;;4.40;1.92;;;11.20;86.50;;;;;;4997974;28;20034;-61
2022/11/02 03:34:52;;;;;;;3.78;2.10;;;11.30;86.90;;;;;;4998795;28;20053;-61
2022/11/02 03:37:21;;;;;;;2.45;1.92;;;11.30;87.80;;;;;;4984939;28;20164;-61
2022/11/02 03:39:56;;;;;;;3.92;2.00;;;11.30;86.70;;;;;;5000490;28;20029;-60
2022/11/02 03:42:25;;;;;;;3.42;1.92;;;11.20;86.90;;;;;;4997557;28;20034;-62
2022/11/02 03:45:01;;;;;;;2.50;1.88;;;11.30;86.90;;;;;;4995789;28;20391;-61
2022/11/02 03:47:30;;;;;;;5.32;2.00;;;11.30;87.20;;;;;;4996878;28;20069;-60
2022/11/02 03:49:57;;;;;;;3.70;2.10;;;11.30;87.20;;;;;;4997478;28;20042;-61
2022/11/02 03:52:28;;;;;;;3.45;2.08;;;11.20;87.40;;;;;;4997916;28;20128;-60
2022/11/02 03:54:59;;;;;;;4.18;1.70;;;11.20;87.70;;;;;;5003260;28;20084;-60
2022/11/02 03:57:32;;;;;;;2.97;2.10;;;11.20;87.80;;;;;;5006704;28;20129;-61
2022/11/02 04:00:13;;;;;;;2.80;1.92;;;11.20;87.80;;;;;;5002537;28;20460;-59
2022/11/02 04:02:41;;;;;;;3.47;2.17;;;11.20;87.60;;;;;;5004039;28;20997;-61
2022/11/02 04:05:07;;;;;;;3.95;1.92;;;11.20;87.30;;;;;;5006481;28;20034;-60
2022/11/02 04:10:20;;;;;;;3.45;1.70;;;11.30;87.10;;;;;;5004212;28;20068;-61
2022/11/02 04:15:29;;;;;;;6.00;1.77;;;11.20;86.90;;;;;;5004069;28;20100;-59
2022/11/02 04:20:39;;;;;;;2.85;1.80;;;11.20;87.00;;;;;;5005466;28;20115;-61
2022/11/02 04:25:54;;;;;;;4.18;1.60;;;11.10;87.40;;;;;;4982933;28;20112;-61
2022/11/02 04:28:19;;;;;;;2.70;1.60;;;11.10;87.40;;;;;;5003768;28;20065;-61
2022/11/02 04:30:45;;;;;;;2.65;1.75;;;11.10;87.50;;;;;;5002820;28;20053;-61
2022/11/02 04:35:57;;;;;;;3.23;2.37;;;11.10;87.60;;;;;;4999888;28;20095;-61
2022/11/02 04:38:41;;;;;;;2.75;2.00;;;11.10;87.60;;;;;;5007649;28;20308;-61
2022/11/02 04:43:53;;;;;;;1.90;1.70;;;11.10;87.40;;;;;;5008416;28;20409;-61
2022/11/02 04:46:19;;;;;;;3.83;1.90;;;11.10;87.10;;;;;;5007248;28;20070;-62
2022/11/02 04:48:45;;;;;;;2.13;1.90;;;11.10;87.10;;;;;;5005558;28;20481;-62
2022/11/02 04:51:11;;;;;;;3.67;1.80;;;11.10;86.90;;;;;;5006297;28;20130;-61
2022/11/02 04:53:36;;;;;;;1.85;1.70;;;11.10;86.70;;;;;;5003810;28;20046;-59
2022/11/02 04:56:02;;;;;;;2.67;2.10;;;11.10;86.50;;;;;;4999729;28;20497;-60
2022/11/02 04:58:27;;;;;;;4.53;2.33;;;11.10;86.50;;;;;;5002663;28;20473;-62
2022/11/02 05:00:53;;;;;;;3.08;2.20;;;11.10;86.60;;;;;;5000212;28;20034;-59
2022/11/02 05:03:19;;;;;;;3.80;2.00;;;11.10;86.60;;;;;;5000191;28;20038;-60
2022/11/02 05:05:44;;;;;;;5.53;2.10;;;11.10;86.40;;;;;;4998931;28;20418;-60
2022/11/02 05:08:10;;;;;;;4.03;2.10;;;11.00;86.20;;;;;;5001606;28;20366;-61
2022/11/02 05:10:35;;;;;;;3.13;1.95;;;11.00;85.90;;;;;;4997643;28;20045;-59
2022/11/02 05:13:01;;;;;;;3.72;2.67;;;11.00;85.90;;;;;;5001774;28;20061;-61
2022/11/02 05:15:27;;;;;;;3.03;2.10;;;11.00;86.00;;;;;;5003165;28;20045;-61
2022/11/02 05:17:53;;;;;;;2.22;2.00;;;11.00;85.90;;;;;;5000630;28;20045;-59
2022/11/02 05:20:18;;;;;;;3.83;2.30;;;10.90;85.70;;;;;;4998886;28;20130;-60
2022/11/02 05:22:44;;;;;;;5.78;2.35;;;10.90;86.00;;;;;;4999586;28;20473;-59
2022/11/02 05:25:10;;;;;;;3.60;2.10;;;10.90;86.00;;;;;;5001566;28;20037;-60
2022/11/02 05:27:36;;;;;;;11.00;2.45;;;10.80;86.10;;;;;;5003796;28;20053;-59
2022/11/02 05:30:03;;;;;;;6.03;2.20;;;10.80;86.50;;;;;;5001100;28;20238;-59
2022/11/02 05:32:29;;;;;;;3.90;2.50;;;10.80;86.90;;;;;;4994960;28;20034;-62
2022/11/02 05:34:54;;;;;;;3.28;2.47;;;10.70;87.10;;;;;;5005087;28;20460;-61
2022/11/02 05:37:20;;;;;;;2.40;2.20;;;10.70;87.40;;;;;;5004682;28;20104;-59
2022/11/02 05:39:45;;;;;;;2.50;2.20;;;10.70;87.40;;;;;;5004454;28;20037;-60
2022/11/02 05:42:11;;;;;;;3.45;2.20;;;10.70;87.30;;;;;;5007482;28;20038;-61
2022/11/02 05:44:36;;;;;;;4.65;2.75;;;10.70;87.30;;;;;;5005024;28;20034;-60
2022/11/02 05:47:03;;;;;;;6.32;2.50;;;10.70;87.10;;;;;;5007552;28;20493;-59
2022/11/02 05:49:28;;;;;;;3.00;2.30;;;10.60;86.90;;;;;;5006606;28;20042;-61
2022/11/02 05:51:54;;;;;;;4.82;2.85;;;10.60;86.80;;;;;;5003568;28;20080;-56
2022/11/02 05:54:20;;;;;;;5.18;3.20;;;10.60;86.70;;;;;;5006057;28;20034;-59
2022/11/02 05:56:46;;;;;;;5.90;3.25;;;10.60;86.60;;;;;;5006431;28;20580;-61
2022/11/02 05:59:12;;;;;;;6.20;3.50;;;10.60;86.60;;;;;;5005984;28;20053;-61
2022/11/02 06:01:38;;;;;;;11.48;6.40;;;10.60;86.50;;;;;;5004298;28;20037;-59
2022/11/02 06:04:04;;;;;;;9.93;4.43;;;10.60;86.60;;;;;;5006434;28;20265;-60
2022/11/02 06:06:30;;;;;;;8.20;3.70;;;10.60;86.70;;;;;;5008147;28;20096;-60
2022/11/02 06:08:56;;;;;;;13.00;3.90;;;10.60;86.70;;;;;;5008375;28;20374;-61
2022/11/02 06:11:22;;;;;;;10.13;3.58;;;10.60;86.70;;;;;;5004400;28;20121;-59
2022/11/02 06:13:49;;;;;;;7.60;4.78;;;10.60;86.60;;;;;;5007857;28;20084;-59
2022/11/02 06:16:16;;;;;;;13.10;8.57;;;10.60;86.70;;;;;;5007764;28;20030;-61
2022/11/02 06:18:43;;;;;;;11.18;8.45;;;10.60;86.70;;;;;;5006947;28;20129;-61
2022/11/02 06:21:08;;;;;;;6.47;4.97;;;10.70;86.80;;;;;;5008365;28;20042;-59
2022/11/02 06:23:35;;;;;;;8.73;6.25;;;10.60;86.90;;;;;;5007763;28;20099;-59
2022/11/02 06:26:01;;;;;;;5.43;3.55;;;10.60;87.30;;;;;;5007967;28;20030;-61
2022/11/02 06:28:27;;;;;;;4.22;3.67;;;10.60;87.60;;;;;;5007714;28;20121;-60
2022/11/02 06:30:53;;;;;;;6.50;3.33;;;10.60;87.90;;;;;;5008109;28;20049;-61
2022/11/02 06:33:19;;;;;;;4.25;2.92;;;10.60;88.00;;;;;;5007528;28;20076;-60
2022/11/02 06:35:47;;;;;;;6.45;2.92;;;10.60;88.10;;;;;;5007939;28;20031;-60
2022/11/02 06:38:12;;;;;;;3.35;2.80;;;10.70;88.20;;;;;;5007625;28;20084;-61
2022/11/02 06:40:38;;;;;;;3.10;2.80;;;10.70;88.10;;;;;;5006806;28;20025;-60
2022/11/02 06:43:04;;;;;;;3.10;2.80;;;10.60;88.20;;;;;;5007742;28;20030;-61
2022/11/02 06:45:29;;;;;;;4.80;2.90;;;10.60;88.40;;;;;;5007485;28;20699;-58
2022/11/02 06:47:55;;;;;;;3.53;2.80;;;10.60;88.50;;;;;;5007860;28;20038;-61
2022/11/02 06:50:23;;;;;;;4.55;2.72;;;10.60;88.80;;;;;;5006896;28;20037;-61
2022/11/02 06:52:49;;;;;;;4.57;3.15;;;10.60;88.80;;;;;;5001355;28;20565;-61
2022/11/02 06:55:15;;;;;;;4.00;3.00;;;10.70;88.90;;;;;;5004583;28;20040;-61
2022/11/02 06:57:41;;;;;;;4.43;4.03;;;10.70;88.80;;;;;;5005285;28;20033;-59
2022/11/02 07:00:12;;;;;;;4.85;3.95;;;10.70;88.90;;;;;;5005268;28;20092;-59
2022/11/02 07:02:39;;;;;;;3.97;3.33;;;10.70;89.10;;;;;;5003269;28;20044;-62
2022/11/02 07:05:05;;;;;;;4.43;3.17;;;10.70;89.10;;;;;;5004434;28;20062;-61
2022/11/02 07:07:30;;;;;;;3.72;3.22;;;10.70;89.20;;;;;;5005739;28;20392;-61
2022/11/02 07:09:56;;;;;;;4.47;2.92;;;10.80;89.20;;;;;;5003896;28;20068;-61
2022/11/02 07:12:21;;;;;;;5.80;3.28;;;10.80;89.20;;;;;;4998862;28;20353;-59
2022/11/02 07:14:47;;;;;;;6.07;3.47;;;10.90;89.20;;;;;;5004286;28;20456;-59
2022/11/02 07:17:12;;;;;;;5.00;2.90;;;10.90;89.20;;;;;;5004782;28;20038;-61
2022/11/02 07:19:38;;;;;;;7.07;3.85;;;10.90;89.20;;;;;;5005588;28;20040;-58
2022/11/02 07:22:04;;;;;;;9.85;4.78;;;10.90;89.20;;;;;;5003013;28;20330;-59
2022/11/02 07:24:29;;;;;;;6.35;3.90;;;11.00;89.30;;;;;;5004490;28;20034;-61
2022/11/02 07:26:55;;;;;;;5.18;3.22;;;11.00;89.30;;;;;;5004715;28;20050;-62
2022/11/02 07:29:20;;;;;;;3.17;2.72;;;11.00;89.30;;;;;;5004608;28;20042;-60
2022/11/02 07:31:46;;;;;;;7.03;3.42;;;11.10;89.40;;;;;;5004746;28;20136;-59
2022/11/02 07:34:12;;;;;;;6.35;3.30;;;11.10;89.50;;;;;;5004570;28;20046;-59
2022/11/02 07:36:38;;;;;;;3.95;3.05;;;11.10;89.70;;;;;;5002844;28;20034;-61
2022/11/02 07:39:04;;;;;;;5.80;3.10;;;11.20;89.90;;;;;;5005618;28;20037;-61
2022/11/02 07:41:30;;;;;;;5.18;2.63;;;11.20;89.90;;;;;;5001618;28;20794;-61
2022/11/02 07:43:55;;;;;;;6.47;2.92;;;11.30;90.00;;;;;;5005024;28;20076;-61
2022/11/02 07:46:21;;;;;;;5.15;2.78;;;11.40;90.00;;;;;;5005289;28;20041;-62
2022/11/02 07:48:47;;;;;;;7.35;3.03;;;11.40;90.00;;;;;;5004140;28;20034;-60
2022/11/02 07:51:12;;;;;;;5.40;2.78;;;11.50;90.10;;;;;;5002468;28;20033;-60
2022/11/02 07:53:38;;;;;;;9.80;4.43;;;11.60;90.20;;;;;;5002215;28;20465;-61
2022/11/02 07:56:05;;;;;;;6.43;2.95;;;11.70;90.40;;;;;;5002480;28;20091;-59
2022/11/02 07:58:31;;;;;;;4.35;2.42;;;11.70;90.40;;;;;;5003865;28;20042;-60
2022/11/02 08:00:58;;;;;;;6.95;2.38;;;11.80;90.50;;;;;;5004806;28;20040;-61
2022/11/02 08:03:24;;;;;;;4.88;2.45;;;11.80;90.50;;;;;;5003541;28;20038;-61
2022/11/02 08:05:50;;;;;;;8.45;1.92;;;12.00;90.50;;;;;;5003371;28;20049;-60
2022/11/02 08:08:18;;;;;;;4.72;1.95;;;12.00;90.50;;;;;;5002571;28;20489;-61
2022/11/02 08:10:46;;;;;;;4.30;1.50;;;12.20;90.50;;;;;;5001471;28;20132;-61
2022/11/02 08:13:21;;;;;;;5.78;1.60;;;12.30;90.40;;;;;;5002274;28;20064;-60
2022/11/02 08:15:50;;;;;;;4.57;1.50;;;12.40;90.40;;;;;;5002714;28;20038;-61
2022/11/02 08:18:19;;;;;;;3.25;1.40;;;12.50;90.40;;;;;;5005419;28;20108;-61
2022/11/02 08:20:45;;;;;;;4.97;1.55;;;12.60;90.20;;;;;;5003752;28;20042;-59
2022/11/02 08:23:11;;;;;;;7.03;1.50;;;12.70;90.20;;;;;;5003550;28;20038;-61
2022/11/02 08:25:38;;;;;;;5.97;1.60;;;12.70;90.00;;;;;;5004337;28;20049;-61
2022/11/02 08:28:05;;;;;;;8.57;1.92;;;12.80;89.80;;;;;;5004741;28;20042;-61
2022/11/02 08:30:32;;;;;;;9.13;1.77;;;12.90;89.60;;;;;;5002523;28;20034;-62
2022/11/02 08:33:06;;;;;;;3.80;1.27;;;13.00;89.30;;;;;;5002924;28;20458;-62
2022/11/02 08:35:33;;;;;;;9.25;1.40;;;13.10;89.10;;;;;;5002967;28;20632;-61
2022/11/02 08:37:59;;;;;;;7.00;1.40;;;13.10;88.90;;;;;;5006074;28;20125;-60
2022/11/02 08:40:26;;;;;;;5.20;1.42;;;13.20;88.60;;;;;;5008376;28;20199;-62
2022/11/02 08:42:58;;;;;;;7.38;1.40;;;13.20;88.40;;;;;;5009790;28;20096;-59
2022/11/02 08:45:25;;;;;;;5.03;1.30;;;13.20;88.00;;;;;;5010188;28;20564;-58
2022/11/02 08:47:51;;;;;;;6.97;1.42;;;13.30;87.80;;;;;;5009716;28;20053;-60
2022/11/02 08:50:17;;;;;;;4.80;1.50;;;13.40;87.70;;;;;;5010396;28;20034;-59
2022/11/02 08:52:42;;;;;;;4.22;1.40;;;13.40;87.60;;;;;;5008765;28;20045;-59
2022/11/02 08:55:08;;;;;;;8.57;1.67;;;13.50;87.60;;;;;;5008262;28;20675;-60
2022/11/02 08:57:53;;;;;;;4.82;1.63;;;13.50;87.60;;;;;;5008010;28;20660;-61
2022/11/02 09:00:20;;;;;;;;;;;13.60;87.40;;;;;;5008011;28;20509;-61
2022/11/02 09:02:57;;;;;;;4.95;1.23;;;13.70;87.40;;;;;;5001259;28;20369;-61
2022/11/02 09:05:22;;;;;;;5.88;1.77;;;13.70;87.00;;;;;;5008072;28;20415;-59
2022/11/02 09:08:03;;;;;;;6.70;1.60;;;13.70;87.20;;;;;;5005273;28;20049;-60
2022/11/02 09:10:31;;;;;;;3.28;1.23;;;13.80;87.00;;;;;;5005498;28;20095;-62
2022/11/02 09:13:03;;;;;;;5.60;1.50;;;13.80;86.90;;;;;;5003129;28;20038;-60
2022/11/02 09:15:28;;;;;;;4.97;1.25;;;13.90;86.60;;;;;;5007329;28;20514;-61
2022/11/02 09:17:54;;;;;;;6.65;1.42;;;13.90;86.50;;;;;;5008504;28;20049;-61
2022/11/02 09:20:21;;;;;;;4.60;1.25;;;14.00;86.40;;;;;;5006289;28;20041;-61
2022/11/02 09:22:47;;;;;;;5.28;1.20;;;14.10;86.10;;;;;;5005154;28;20096;-61
2022/11/02 09:25:13;;;;;;;6.47;1.63;;;14.20;86.00;;;;;;5006972;28;20033;-63
2022/11/02 09:27:40;;;;;;;5.25;1.50;;;14.20;85.90;;;;;;5006484;28;20569;-62
2022/11/02 09:30:07;;;;;;;6.63;1.20;;;14.30;85.50;;;;;;5007606;28;20033;-61
2022/11/02 09:32:33;;;;;;;3.25;1.33;;;14.30;85.20;;;;;;5006870;28;20390;-60
2022/11/02 09:35:00;;;;;;;4.82;1.00;;;14.40;85.20;;;;;;5006359;28;20037;-60
2022/11/02 09:37:26;;;;;;;5.18;1.30;;;14.40;84.80;;;;;;5005270;28;20037;-59
2022/11/02 09:39:52;;;;;;;7.63;1.40;;;14.50;84.50;;;;;;5005940;28;20038;-61
2022/11/02 09:42:33;;;;;;;5.70;1.10;;;14.60;84.30;;;;;;5005860;28;20460;-60
2022/11/02 09:45:05;;;;;;;2.65;0.95;;;14.60;83.10;;;;;;5007031;28;20354;-62
2022/11/02 09:47:40;;;;;;;5.10;1.20;;;14.70;82.70;;;;;;5006961;28;20068;-60
2022/11/02 09:50:12;;;;;;;4.88;1.20;;;14.70;82.90;;;;;;5007092;28;20084;-61
2022/11/02 09:52:42;;;;;;;5.82;1.30;;;14.80;82.90;;;;;;5004207;28;20042;-61
2022/11/02 09:55:17;;;;;;;4.07;1.05;;;14.80;82.30;;;;;;5006721;28;20033;-62
2022/11/02 09:57:45;;;;;;;4.05;1.10;;;14.80;81.90;;;;;;5006697;28;20038;-60
2022/11/02 10:00:19;;;;;;;6.38;1.35;;;14.90;81.70;;;;;;5007727;28;20038;-62
2022/11/02 10:03:15;;;;;;;4.35;1.15;;;14.90;80.80;;;;;;5004774;28;20092;-61
2022/11/02 10:05:46;;;;;;;;;;;14.90;79.80;;;;;;5007449;28;20049;-61
2022/11/02 10:08:23;;;;;;;4.60;0.90;;;15.00;80.60;;;;;;5006930;28;19917;-61
2022/11/02 10:10:52;;;;;;;4.32;0.90;;;15.00;80.90;;;;;;5004821;28;20890;-60
2022/11/02 10:13:35;;;;;;;6.80;1.02;;;15.10;80.80;;;;;;5005435;28;20409;-60
2022/11/02 10:16:11;;;;;;;5.35;1.13;;;15.10;79.50;;;;;;5006513;28;20052;-61
2022/11/02 10:18:39;;;;;;;5.93;1.35;;;15.20;79.40;;;;;;5006491;28;20042;-61
2022/11/02 10:21:12;;;;;;;3.20;1.20;;;15.20;79.60;;;;;;5004924;28;20041;-59
2022/11/02 10:23:52;;;;;;;7.60;2.10;;;15.20;78.80;;;;;;5005612;28;20120;-60
2022/11/02 10:26:28;;;;;;;5.15;1.40;;;15.20;78.00;;;;;;5006545;28;20064;-61
2022/11/02 10:29:01;;;;;;;6.00;2.45;;;15.20;78.40;;;;;;5005315;28;20045;-59
2022/11/02 10:31:33;;;;;;;4.70;1.70;;;15.30;78.10;;;;;;5007546;28;20034;-61
2022/11/02 10:34:14;;;;;;;4.20;1.23;;;15.30;77.90;;;;;;5008327;28;20056;-61
2022/11/02 10:36:59;;;;;;;3.95;1.17;;;15.30;77.30;;;;;;5008178;28;20046;-61
2022/11/02 10:39:43;;;;;;;3.65;0.98;;;15.30;76.80;;;;;;5008471;28;20042;-60
2022/11/02 10:42:25;;;;;;;6.40;1.20;;;15.30;77.70;;;;;;5008504;28;20068;-62
2022/11/02 10:45:08;;;;;;;4.20;1.30;;;15.40;78.10;;;;;;5008240;28;20080;-62
2022/11/02 10:48:06;;;;;;;3.03;1.20;;;15.40;76.80;;;;;;5008600;28;20037;-62
2022/11/02 10:50:46;;;;;;;6.15;1.17;;;15.50;76.30;;;;;;4990916;28;20139;-63
2022/11/02 10:53:15;;;;;;;3.50;1.00;;;15.50;76.80;;;;;;5008292;28;20406;-60
2022/11/02 10:55:46;;;;;;;4.38;0.93;;;15.60;77.30;;;;;;5007816;28;20041;-61
2022/11/02 10:58:17;;;;;;;3.70;1.05;;;15.60;76.60;;;;;;5008471;28;20060;-62
2022/11/02 11:00:43;;;;;;;3.67;1.13;;;15.60;76.50;;;;;;5007737;28;20030;-62
2022/11/02 11:03:12;;;;;;;5.50;1.23;;;15.70;76.80;;;;;;5007940;28;20036;-60
2022/11/02 11:05:49;;;;;;;4.30;0.98;;;15.70;76.60;;;;;;5008110;28;20037;-60
2022/11/02 11:08:34;;;;;;;3.55;0.93;;;15.80;75.30;;;;;;5008067;28;20112;-61
2022/11/02 11:11:20;;;;;;;3.63;1.15;;;15.80;76.40;;;;;;5006695;28;20409;-60
2022/11/02 11:14:12;;;;;;;3.40;0.88;;;15.80;74.80;;;;;;5007727;28;20326;-61
2022/11/02 11:16:43;;;;;;;2.95;0.90;;;15.90;74.30;;;;;;5007495;28;20132;-62
2022/11/02 11:19:20;;;;;;;2.78;1.02;;;15.90;75.40;;;;;;5008588;28;20413;-62
2022/11/02 11:21:48;;;;;;;3.85;0.90;;;15.90;74.50;;;;;;5007745;28;20678;-61
2022/11/02 11:24:22;;;;;;;3.70;0.88;;;16.00;75.20;;;;;;5007574;28;20034;-62
2022/11/02 11:27:10;;;;;;;2.40;0.68;;;16.00;74.00;;;;;;5006937;28;20046;-62
2022/11/02 11:29:38;;;;;;;1.70;0.88;;;16.00;73.50;;;;;;5007747;28;20040;-62
2022/11/02 11:32:14;;;;;;;2.75;1.10;;;16.10;74.80;;;;;;5004286;28;20251;-62
2022/11/02 11:34:42;;;;;;;2.70;0.88;;;16.10;74.20;;;;;;5004959;28;20065;-60
2022/11/02 11:37:14;;;;;;;4.57;1.17;;;16.10;74.80;;;;;;5003561;28;20034;-61
2022/11/02 11:39:43;;;;;;;4.38;1.35;;;16.20;74.00;;;;;;5005766;28;20076;-60
2022/11/02 11:42:21;;;;;;;4.38;1.00;;;16.20;74.40;;;;;;5004445;28;20037;-58
2022/11/02 11:45:00;;;;;;;2.83;1.10;;;16.20;73.90;;;;;;5003581;28;20038;-61
2022/11/02 11:47:29;;;;;;;1.73;0.90;;;16.20;73.80;;;;;;5004554;28;20046;-61
2022/11/02 11:49:59;;;;;;;3.83;1.05;;;16.20;74.20;;;;;;5004092;28;20493;-62
2022/11/02 11:52:31;;;;;;;2.33;0.70;;;16.30;74.00;;;;;;5002344;28;20514;-61
2022/11/02 11:54:59;;;;;;;2.05;0.70;;;16.30;73.20;;;;;;5004214;28;20038;-61
2022/11/02 11:57:27;;;;;;;3.67;0.70;;;16.40;73.30;;;;;;5006080;28;20099;-61
2022/11/02 11:59:54;;;;;;;3.45;0.90;;;16.40;73.30;;;;;;5005438;28;20163;-61
2022/11/02 12:02:34;;;;;;;3.15;0.70;;;16.40;73.20;;;;;;5004994;28;20387;-61
2022/11/02 12:05:10;;;;;;;2.45;0.90;;;16.40;72.50;;;;;;5004614;28;20038;-62
2022/11/02 12:07:47;;;;;;;2.33;0.60;;;16.40;72.70;;;;;;5003772;28;20041;-62
2022/11/02 12:10:31;;;;;;;3.72;1.23;;;16.40;71.80;;;;;;5003737;28;20054;-59
2022/11/02 12:13:08;;;;;;;3.08;0.68;;;16.40;71.80;;;;;;5002028;28;20033;-62
2022/11/02 12:15:43;;;;;;;3.70;1.17;;;16.40;71.80;;;;;;5007666;28;20375;-62
2022/11/02 12:18:42;;;;;;;4.30;1.10;;;16.40;72.00;;;;;;5009929;28;20481;-61
2022/11/02 12:21:28;;;;;;;4.32;1.40;;;16.40;71.20;;;;;;5006460;28;20398;-62
2022/11/02 12:24:20;;;;;;;3.25;1.27;;;16.50;71.20;;;;;;5009090;28;20037;-62
2022/11/02 12:27:10;;;;;;;2.55;1.05;;;16.50;72.00;;;;;;5000558;28;20044;-61
2022/11/02 12:29:57;;;;;;;3.90;0.98;;;16.50;70.90;;;;;;5008021;28;20037;-61
2022/11/02 12:32:34;;;;;;;3.28;1.02;;;16.50;71.20;;;;;;5006225;28;20034;-62
2022/11/02 12:35:07;;;;;;;5.65;1.05;;;16.50;71.40;;;;;;5006642;28;20038;-60
2022/11/02 12:37:33;;;;;;;5.15;0.77;;;16.50;71.70;;;;;;5008345;28;20037;-61
2022/11/02 12:40:17;;;;;;;1.92;0.80;;;16.50;71.20;;;;;;5007982;28;20382;-60
2022/11/02 12:43:16;;;;;;;2.53;0.90;;;16.60;70.10;;;;;;5007413;28;20057;-62
2022/11/02 12:46:03;;;;;;;3.33;0.80;;;16.60;70.40;;;;;;5007052;28;20029;-59
2022/11/02 12:49:06;;;;;;;3.08;0.70;;;16.60;70.00;;;;;;5005420;28;20049;-61
2022/11/02 12:52:03;;;;;;;2.20;0.63;;;16.60;69.70;;;;;;5006944;28;20113;-60
2022/11/02 12:54:44;;;;;;;2.70;0.80;;;16.60;69.50;;;;;;5007640;28;20524;-60
2022/11/02 12:57:14;;;;;;;1.98;0.85;;;16.70;70.00;;;;;;5008129;28;20048;-60
2022/11/02 12:59:42;;;;;;;4.05;0.90;;;16.70;70.60;;;;;;5009112;28;20140;-60
2022/11/02 13:02:30;;;;;;;1.95;0.75;;;16.70;70.40;;;;;;5008432;28;20049;-61
2022/11/02 13:05:10;;;;;;;2.25;0.82;;;16.70;68.90;;;;;;4988333;28;20038;-62
2022/11/02 13:07:47;;;;;;;5.32;0.90;;;16.70;68.80;;;;;;5007044;28;20124;-62
2022/11/02 13:10:20;;;;;;;2.47;0.82;;;16.70;69.50;;;;;;5007149;28;20641;-62
2022/11/02 13:12:54;;;;;;;4.70;0.90;;;16.70;69.90;;;;;;5003127;28;20042;-62
2022/11/02 13:15:22;;;;;;;4.47;0.90;;;16.70;69.60;;;;;;5008714;28;20291;-62
2022/11/02 13:18:04;;;;;;;3.50;0.90;;;16.70;69.70;;;;;;5005302;28;20084;-61
2022/11/02 13:20:43;;;;;;;2.33;0.70;;;16.70;68.50;;;;;;5006659;28;20125;-60
2022/11/02 13:23:37;;;;;;;3.47;0.60;;;16.70;68.60;;;;;;5007662;28;20038;-62
2022/11/02 13:26:10;;;;;;;1.73;0.80;;;16.70;68.90;;;;;;5007095;28;20030;-61